KOPL

Details ICAO KOPL
Name ST LANDRY PARISH AHART FLD
Region United States
Timezone America/Chicago (UTC-6.0)
Plans Departing 1
Arriving 3
Stats Elevation 75 ft / 23 m (AMSL)
Location 30.557203° -92.099612°
Runways 3
Magnetic Variation 0.424° E
Sunrise 2017-12-10 12:56:21 UTC / 2017-12-10 06:56:21 Local
Sunset 2017-12-10 23:09:12 UTC / 2017-12-10 17:09:12 Local
Advertisement - Login to hide

Runways

ID Width Length Bearing (true) Bearing (mag) Surface Threshold Offset Overrun Length
05 100 ft / 30 m 4,049 ft / 1,234 m 60.03° 59.61° Concrete 165 ft / 50 m 0 ft / 0 m
11 100 ft / 30 m 4,516 ft / 1,377 m 119.59° 119.17° Concrete 0 ft / 0 m 0 ft / 0 m
18 100 ft / 30 m 5,868 ft / 1,789 m 180.15° 179.73° Concrete 150 ft / 46 m 0 ft / 0 m
23 100 ft / 30 m 4,049 ft / 1,234 m 240.03° 239.61° Concrete 169 ft / 52 m 0 ft / 0 m
29 100 ft / 30 m 4,516 ft / 1,377 m 299.59° 299.17° Concrete 0 ft / 0 m 0 ft / 0 m
36 100 ft / 30 m 5,868 ft / 1,789 m 0.15° 359.73° Concrete 789 ft / 240 m 0 ft / 0 m

Map

Weather


0- 5 10 15 20 25 30 35+ Temperature / ° C

Clouds and Precipitation
Forecast for 2017-12-11 06:00 UTC. Updated an hour ago

Ground ~20,000 ft ~40,000 ft Winds

METAR

KOPL 110220Z AUTO 22003KT 10SM CLR 06/02 A3035 RMK AO2 T00640017

TAF

Not found

Frequencies

Unicom 123.00 MHz CTAF/UNICOM
Approach 128.70 MHz LAFAYETTE APP/DEP
Warning: Do not use this data for real-world aviation or navigation. No guarantee of current accuracy is given.